Time;durP1;ratioP1;P1;durP2;ratioP2;P2;SDS_P1;SDS_P2;PMS_P1;PMS_P2;Temp;Humidity;BMP_temperature;BMP_pressure;BME280_temperature;BME280_humidity;BME280_pressure;Samples;Min_cycle;Max_cycle;Signal;HPM_P1;HPM_P2
2020/12/26 00:00:05;;;;;;;6.07;2.78;;;;;;;;;;5085092;28;20359;-52
2020/12/26 00:02:31;;;;;;;6.60;2.95;;;;;;;;;;5078622;28;20081;-56
2020/12/26 00:04:57;;;;;;;7.88;2.88;;;;;;;;;;5075174;28;20053;-53
2020/12/26 00:07:23;;;;;;;6.25;2.60;;;;;;;;;;5080785;28;20460;-55
2020/12/26 00:09:49;;;;;;;8.43;2.72;;;;;;;;;;5074107;28;20043;-56
2020/12/26 00:12:15;;;;;;;6.30;2.13;;;;;;;;;;5069723;28;20029;-56
2020/12/26 00:14:41;;;;;;;7.60;3.20;;;;;;;;;;5052652;28;20158;-53
2020/12/26 00:17:07;;;;;;;6.07;2.42;;;;;;;;;;5082682;28;20032;-54
2020/12/26 00:19:33;;;;;;;7.53;2.83;;;;;;;;;;5055180;28;20044;-55
2020/12/26 00:21:59;;;;;;;7.18;2.40;;;;;;;;;;5077461;28;20467;-56
2020/12/26 00:24:24;;;;;;;8.10;2.70;;;;;;;;;;5086925;28;20547;-54
2020/12/26 00:26:50;;;;;;;11.30;2.75;;;;;;;;;;5084996;28;20035;-57
2020/12/26 00:29:16;;;;;;;4.47;2.40;;;;;;;;;;5071587;28;20028;-51
2020/12/26 00:31:42;;;;;;;7.50;2.90;;;;;;;;;;5088131;28;20565;-57
2020/12/26 00:34:08;;;;;;;5.15;2.72;;;;;;;;;;5085304;28;20506;-52
2020/12/26 00:36:37;;;;;;;6.88;2.60;;;;;;;;;;5075674;28;20521;-53
2020/12/26 00:39:03;;;;;;;4.25;2.83;;;;;;;;;;5064108;28;20112;-53
2020/12/26 00:41:29;;;;;;;9.70;2.97;;;;;;;;;;5070338;28;20699;-55
2020/12/26 00:43:55;;;;;;;6.35;2.70;;;;;;;;;;5067066;28;20031;-53
2020/12/26 00:46:22;;;;;;;7.07;2.70;;;;;;;;;;5085798;28;20032;-55
2020/12/26 00:48:49;;;;;;;5.53;2.58;;;;;;;;;;5085902;28;20024;-53
2020/12/26 00:51:15;;;;;;;6.68;2.22;;;;;;;;;;5073768;28;20500;-56
2020/12/26 00:53:41;;;;;;;6.82;2.83;;;;;;;;;;5067382;28;20028;-55
2020/12/26 00:56:07;;;;;;;12.13;2.67;;;;;;;;;;5073753;28;20051;-51
2020/12/26 00:58:33;;;;;;;6.95;2.40;;;;;;;;;;5078325;28;20111;-55
2020/12/26 01:00:59;;;;;;;6.20;2.88;;;;;;;;;;5079021;28;20028;-55
2020/12/26 01:03:27;;;;;;;4.40;2.35;;;;;;;;;;5067562;28;20027;-53
2020/12/26 01:05:53;;;;;;;6.03;2.20;;;;;;;;;;5082731;28;20032;-56
2020/12/26 01:08:19;;;;;;;6.18;2.40;;;;;;;;;;5079889;28;20043;-56
2020/12/26 01:10:45;;;;;;;5.97;2.50;;;;;;;;;;5089642;28;20040;-56
2020/12/26 01:13:11;;;;;;;8.52;3.03;;;;;;;;;;5078494;28;20032;-52
2020/12/26 01:15:37;;;;;;;5.53;2.63;;;;;;;;;;5084388;28;20024;-55
2020/12/26 01:18:03;;;;;;;8.48;2.47;;;;;;;;;;5092041;28;20024;-54
2020/12/26 01:20:29;;;;;;;7.43;2.55;;;;;;;;;;5083306;28;20102;-52
2020/12/26 01:22:55;;;;;;;5.82;2.75;;;;;;;;;;5080827;28;20099;-58
2020/12/26 01:25:21;;;;;;;9.45;2.53;;;;;;;;;;5090597;28;20527;-53
2020/12/26 01:27:47;;;;;;;5.82;1.95;;;;;;;;;;5082376;28;20038;-52
2020/12/26 01:30:13;;;;;;;9.02;2.50;;;;;;;;;;5082060;28;20073;-55
2020/12/26 01:32:39;;;;;;;8.10;2.58;;;;;;;;;;5088471;28;20039;-56
2020/12/26 01:35:05;;;;;;;6.25;2.47;;;;;;;;;;5070384;28;20054;-57
2020/12/26 01:37:31;;;;;;;6.22;2.08;;;;;;;;;;5090225;28;20032;-55
2020/12/26 01:39:57;;;;;;;7.15;2.20;;;;;;;;;;5086142;28;20031;-57
2020/12/26 01:42:23;;;;;;;4.57;2.13;;;;;;;;;;5080546;28;20036;-55
2020/12/26 01:44:49;;;;;;;4.43;1.83;;;;;;;;;;5084637;28;20071;-56
2020/12/26 01:47:16;;;;;;;3.30;2.05;;;;;;;;;;5085079;28;20028;-56
2020/12/26 01:49:43;;;;;;;7.53;2.20;;;;;;;;;;5090283;28;20036;-56
2020/12/26 01:52:09;;;;;;;4.30;1.70;;;;;;;;;;5087797;28;20034;-56
2020/12/26 01:54:35;;;;;;;11.88;2.42;;;;;;;;;;5088608;28;20114;-55
2020/12/26 01:57:02;;;;;;;4.75;1.90;;;;;;;;;;5081609;28;20038;-52
2020/12/26 01:59:28;;;;;;;7.65;2.58;;;;;;;;;;5077301;28;20033;-56
2020/12/26 02:01:57;;;;;;;6.07;2.15;;;;;;;;;;5054043;28;20032;-54
2020/12/26 02:04:24;;;;;;;6.35;2.03;;;;;;;;;;5059800;28;20463;-52
2020/12/26 02:06:54;;;;;;;2.85;2.17;;;;;;;;;;5084739;28;20047;-57
2020/12/26 02:09:20;;;;;;;4.80;2.05;;;;;;;;;;5089161;28;20032;-54
2020/12/26 02:11:46;;;;;;;5.20;1.80;;;;;;;;;;5079634;28;20028;-53
2020/12/26 02:14:12;;;;;;;4.38;2.20;;;;;;;;;;5080446;28;20080;-58
2020/12/26 02:16:45;;;;;;;2.90;1.70;;;;;;;;;;5082631;28;20038;-56
2020/12/26 02:19:12;;;;;;;8.10;2.05;;;;;;;;;;5086265;28;20718;-57
2020/12/26 02:21:39;;;;;;;6.00;2.33;;;;;;;;;;5082059;28;20043;-57
2020/12/26 02:24:05;;;;;;;4.80;2.00;;;;;;;;;;5079352;28;20506;-56
2020/12/26 02:26:31;;;;;;;6.93;2.35;;;;;;;;;;5082527;28;20119;-57
2020/12/26 02:28:57;;;;;;;4.43;2.10;;;;;;;;;;5083824;28;20931;-56
2020/12/26 02:31:23;;;;;;;5.70;2.20;;;;;;;;;;5075522;28;20032;-55
2020/12/26 02:33:49;;;;;;;7.63;2.15;;;;;;;;;;5081632;28;20056;-55
2020/12/26 02:36:15;;;;;;;3.15;1.75;;;;;;;;;;5068782;28;20089;-55
2020/12/26 02:38:41;;;;;;;5.18;1.80;;;;;;;;;;5083571;28;20024;-57
2020/12/26 02:41:07;;;;;;;7.18;1.95;;;;;;;;;;5090235;28;20031;-57
2020/12/26 02:43:34;;;;;;;4.05;1.70;;;;;;;;;;5088167;28;20024;-54
2020/12/26 02:46:00;;;;;;;4.90;1.98;;;;;;;;;;5089183;28;20531;-55
2020/12/26 02:48:29;;;;;;;4.32;1.90;;;;;;;;;;5079157;28;20040;-54
2020/12/26 02:50:55;;;;;;;6.55;1.90;;;;;;;;;;5078771;28;20127;-56
2020/12/26 02:53:22;;;;;;;7.13;1.90;;;;;;;;;;5082994;28;20032;-57
2020/12/26 02:55:48;;;;;;;3.83;2.00;;;;;;;;;;5085434;28;20494;-55
2020/12/26 02:58:14;;;;;;;5.72;2.35;;;;;;;;;;5075729;28;20051;-53
2020/12/26 03:00:40;;;;;;;5.65;1.95;;;;;;;;;;5079763;28;20039;-57
2020/12/26 03:03:06;;;;;;;5.70;1.70;;;;;;;;;;5078520;28;20024;-52
2020/12/26 03:05:32;;;;;;;7.07;1.60;;;;;;;;;;5073694;28;20126;-56
2020/12/26 03:07:58;;;;;;;6.38;2.10;;;;;;;;;;5079873;28;20047;-54
2020/12/26 03:10:24;;;;;;;4.45;1.48;;;;;;;;;;5075876;28;20029;-54
2020/12/26 03:12:50;;;;;;;5.55;1.55;;;;;;;;;;5065863;28;20041;-58
2020/12/26 03:15:16;;;;;;;5.68;2.05;;;;;;;;;;5075681;28;20581;-52
2020/12/26 03:17:42;;;;;;;6.90;1.67;;;;;;;;;;5081226;28;20098;-53
2020/12/26 03:20:08;;;;;;;3.20;1.98;;;;;;;;;;5077806;28;20052;-53
2020/12/26 03:22:34;;;;;;;2.70;1.52;;;;;;;;;;5069367;28;20028;-56
2020/12/26 03:25:00;;;;;;;7.22;2.35;;;;;;;;;;5076385;28;20062;-55
2020/12/26 03:27:26;;;;;;;7.22;2.00;;;;;;;;;;5088666;28;20855;-54
2020/12/26 03:29:53;;;;;;;4.47;1.92;;;;;;;;;;5082053;28;20058;-57
2020/12/26 03:32:19;;;;;;;5.68;1.90;;;;;;;;;;5078129;28;20028;-57
2020/12/26 03:34:45;;;;;;;7.20;1.80;;;;;;;;;;5078862;28;20028;-50
2020/12/26 03:37:11;;;;;;;5.53;1.90;;;;;;;;;;5058992;28;20020;-55
2020/12/26 03:39:37;;;;;;;5.93;1.80;;;;;;;;;;5084796;28;20028;-54
2020/12/26 03:42:07;;;;;;;9.18;2.20;;;;;;;;;;5078568;28;20035;-55
2020/12/26 03:44:33;;;;;;;4.68;1.75;;;;;;;;;;5075985;28;20032;-57
2020/12/26 03:46:59;;;;;;;6.43;1.73;;;;;;;;;;5068937;28;20499;-53
2020/12/26 03:49:27;;;;;;;7.38;2.22;;;;;;;;;;5077035;28;20029;-56
2020/12/26 03:51:53;;;;;;;6.30;1.80;;;;;;;;;;5089270;28;20066;-56
2020/12/26 03:54:19;;;;;;;4.40;1.67;;;;;;;;;;5076794;28;20489;-56
2020/12/26 03:56:44;;;;;;;3.83;1.90;;;;;;;;;;5077480;28;20032;-57
2020/12/26 03:59:10;;;;;;;5.43;1.67;;;;;;;;;;5081698;28;20486;-56
2020/12/26 04:01:36;;;;;;;6.20;2.15;;;;;;;;;;5084156;28;20036;-55
2020/12/26 04:04:03;;;;;;;5.82;2.28;;;;;;;;;;5071807;28;20378;-57
2020/12/26 04:06:29;;;;;;;3.15;1.65;;;;;;;;;;5076143;28;20040;-53
2020/12/26 04:08:55;;;;;;;2.47;1.80;;;;;;;;;;5077627;28;20493;-53
2020/12/26 04:11:21;;;;;;;3.35;1.67;;;;;;;;;;5074862;28;20036;-56
2020/12/26 04:13:47;;;;;;;2.55;1.40;;;;;;;;;;5084509;28;20097;-57
2020/12/26 04:16:12;;;;;;;5.65;1.45;;;;;;;;;;5080150;28;20020;-56
2020/12/26 04:18:39;;;;;;;2.42;1.50;;;;;;;;;;5082872;28;20411;-53
2020/12/26 04:21:05;;;;;;;4.30;1.60;;;;;;;;;;5078324;28;20493;-57
2020/12/26 04:23:31;;;;;;;7.75;1.67;;;;;;;;;;5087188;28;20036;-55
2020/12/26 04:25:57;;;;;;;7.45;1.88;;;;;;;;;;5080549;28;20032;-57
2020/12/26 04:28:22;;;;;;;4.05;1.60;;;;;;;;;;5086552;28;20020;-53
2020/12/26 04:30:48;;;;;;;5.20;1.70;;;;;;;;;;5088144;28;20024;-56
2020/12/26 04:33:14;;;;;;;6.63;1.92;;;;;;;;;;5076800;28;20029;-54
2020/12/26 04:35:40;;;;;;;5.35;1.65;;;;;;;;;;5078650;28;20032;-55
2020/12/26 04:38:06;;;;;;;4.07;2.00;;;;;;;;;;5085685;28;20165;-57
2020/12/26 04:40:32;;;;;;;5.32;2.30;;;;;;;;;;5077601;28;20036;-53
2020/12/26 04:42:59;;;;;;;5.68;1.67;;;;;;;;;;5066475;28;20032;-55
2020/12/26 04:45:25;;;;;;;4.32;1.40;;;;;;;;;;5082497;28;20059;-55
2020/12/26 04:47:55;;;;;;;5.95;1.88;;;;;;;;;;5072845;28;20032;-57
2020/12/26 04:50:27;;;;;;;3.03;1.77;;;;;;;;;;5087978;28;20028;-55
2020/12/26 04:52:56;;;;;;;3.15;1.77;;;;;;;;;;5086730;28;20016;-56
2020/12/26 04:55:26;;;;;;;7.90;1.80;;;;;;;;;;5087436;28;20032;-51
2020/12/26 04:57:53;;;;;;;7.80;1.80;;;;;;;;;;5077139;28;20030;-55
2020/12/26 05:00:19;;;;;;;6.63;1.88;;;;;;;;;;5069226;28;20479;-52
2020/12/26 05:02:49;;;;;;;8.43;1.75;;;;;;;;;;5067814;28;20029;-56
2020/12/26 05:05:15;;;;;;;7.28;1.83;;;;;;;;;;5070354;28;20032;-55
2020/12/26 05:07:41;;;;;;;3.08;1.58;;;;;;;;;;5059187;28;20505;-55
2020/12/26 05:10:07;;;;;;;7.50;2.92;;;;;;;;;;5081453;28;20043;-55
2020/12/26 05:12:33;;;;;;;3.15;1.80;;;;;;;;;;5077029;28;20024;-56
2020/12/26 05:15:01;;;;;;;2.72;1.58;;;;;;;;;;5080965;28;20020;-56
2020/12/26 05:17:27;;;;;;;6.53;2.22;;;;;;;;;;5084169;28;20434;-55
2020/12/26 05:19:53;;;;;;;3.65;2.00;;;;;;;;;;5075683;28;20035;-56
2020/12/26 05:22:19;;;;;;;4.22;2.33;;;;;;;;;;5068319;28;20036;-57
2020/12/26 05:24:51;;;;;;;5.68;2.28;;;;;;;;;;5086972;28;20403;-54
2020/12/26 05:27:18;;;;;;;7.43;2.72;;;;;;;;;;5062648;28;20033;-55
2020/12/26 05:29:44;;;;;;;3.78;2.63;;;;;;;;;;5080898;28;20790;-56
2020/12/26 05:32:14;;;;;;;11.07;3.85;;;;;;;;;;5074266;28;20123;-57
2020/12/26 05:34:40;;;;;;;4.30;2.75;;;;;;;;;;5071639;28;20059;-54
2020/12/26 05:37:06;;;;;;;9.48;3.17;;;;;;;;;;5077040;28;20112;-53
2020/12/26 05:39:34;;;;;;;7.90;2.90;;;;;;;;;;5087931;28;20032;-56
2020/12/26 05:42:00;;;;;;;4.93;2.80;;;;;;;;;;5087403;28;20073;-56
2020/12/26 05:44:29;;;;;;;5.65;3.20;;;;;;;;;;5079711;28;20034;-57
2020/12/26 05:46:56;;;;;;;10.35;3.22;;;;;;;;;;5086824;28;20095;-53
2020/12/26 05:49:23;;;;;;;7.68;3.70;;;;;;;;;;5067929;28;20777;-57
2020/12/26 05:51:51;;;;;;;8.95;3.72;;;;;;;;;;5087319;28;20119;-56
2020/12/26 05:54:18;;;;;;;9.02;4.00;;;;;;;;;;5065888;28;20031;-56
2020/12/26 05:56:44;;;;;;;9.45;4.63;;;;;;;;;;5079026;28;20021;-57
2020/12/26 05:59:26;;;;;;;7.95;4.15;;;;;;;;;;5065668;28;20025;-58
2020/12/26 06:01:52;;;;;;;8.20;3.75;;;;;;;;;;5077176;28;20085;-55
2020/12/26 06:04:20;;;;;;;12.65;5.82;;;;;;;;;;5075365;28;20173;-57
2020/12/26 06:06:52;;;;;;;11.70;5.75;;;;;;;;;;5082026;28;20132;-55
2020/12/26 06:09:20;;;;;;;12.75;5.95;;;;;;;;;;5090732;28;20390;-53
2020/12/26 06:11:46;;;;;;;13.80;5.68;;;;;;;;;;5076400;28;20040;-56
2020/12/26 06:14:14;;;;;;;14.07;6.43;;;;;;;;;;5071773;28;20032;-58
2020/12/26 06:16:41;;;;;;;14.45;6.95;;;;;;;;;;5087751;28;20109;-57
2020/12/26 06:19:10;;;;;;;18.00;8.05;;;;;;;;;;5079002;28;20484;-55
2020/12/26 06:21:36;;;;;;;21.95;9.68;;;;;;;;;;5078322;28;20031;-56
2020/12/26 06:24:02;;;;;;;19.52;10.95;;;;;;;;;;5089635;28;20036;-54
2020/12/26 06:26:34;;;;;;;23.55;9.77;;;;;;;;;;5084997;28;20108;-55
2020/12/26 06:29:02;;;;;;;23.00;9.80;;;;;;;;;;5073563;28;20479;-57
2020/12/26 06:31:29;;;;;;;17.52;9.55;;;;;;;;;;5079880;28;20028;-56
2020/12/26 06:33:55;;;;;;;17.52;10.23;;;;;;;;;;5075259;28;20149;-53
2020/12/26 06:36:21;;;;;;;18.88;10.77;;;;;;;;;;5081379;28;20464;-55
2020/12/26 06:38:48;;;;;;;21.00;11.48;;;;;;;;;;5084426;28;20071;-52
2020/12/26 06:41:14;;;;;;;20.92;11.00;;;;;;;;;;5079894;28;20470;-56
2020/12/26 06:43:40;;;;;;;26.90;12.48;;;;;;;;;;5073133;28;20048;-55
2020/12/26 06:46:26;;;;;;;23.77;12.45;;;;;;;;;;5078448;28;20032;-57
2020/12/26 06:48:54;;;;;;;22.88;12.45;;;;;;;;;;5073422;28;20040;-56
2020/12/26 06:51:27;;;;;;;25.40;12.45;;;;;;;;;;5086936;28;20028;-55
2020/12/26 06:53:53;;;;;;;27.45;12.80;;;;;;;;;;5073626;28;20016;-57
2020/12/26 06:56:34;;;;;;;30.05;13.45;;;;;;;;;;5089419;28;20050;-55
2020/12/26 06:59:00;;;;;;;28.65;14.05;;;;;;;;;;5079770;28;20107;-56
2020/12/26 07:01:27;;;;;;;28.60;14.13;;;;;;;;;;5089531;28;20028;-53
2020/12/26 07:04:10;;;;;;;28.48;15.20;;;;;;;;;;5074201;28;20039;-55
2020/12/26 07:06:59;;;;;;;28.73;15.35;;;;;;;;;;5064733;28;20040;-56
2020/12/26 07:09:44;;;;;;;32.53;14.88;;;;;;;;;;5083589;28;20036;-53
2020/12/26 07:12:12;;;;;;;31.63;15.50;;;;;;;;;;5078830;28;20402;-52
2020/12/26 07:14:39;;;;;;;31.77;13.57;;;;;;;;;;5081352;28;20030;-50
2020/12/26 07:17:05;;;;;;;33.83;14.63;;;;;;;;;;5088674;28;20051;-53
2020/12/26 07:19:42;;;;;;;28.60;14.25;;;;;;;;;;5086237;28;20028;-53
2020/12/26 07:22:13;;;;;;;34.92;13.80;;;;;;;;;;5072992;28;20019;-49
2020/12/26 07:24:45;;;;;;;29.00;13.00;;;;;;;;;;5088151;28;20051;-53
2020/12/26 07:27:13;;;;;;;29.38;14.32;;;;;;;;;;5078044;28;20056;-56
2020/12/26 07:29:57;;;;;;;27.63;13.63;;;;;;;;;;5070635;28;20444;-54
2020/12/26 07:32:42;;;;;;;34.22;13.75;;;;;;;;;;5068363;28;20077;-55
2020/12/26 07:35:08;;;;;;;28.40;13.23;;;;;;;;;;5082193;28;20122;-49
2020/12/26 07:37:34;;;;;;;32.00;14.40;;;;;;;;;;5077057;28;20016;-50
2020/12/26 07:40:00;;;;;;;27.83;13.48;;;;;;;;;;5086465;28;20027;-51
2020/12/26 07:42:27;;;;;;;30.92;14.48;;;;;;;;;;5081827;28;20024;-54
2020/12/26 07:44:52;;;;;;;30.27;13.93;;;;;;;;;;5070256;28;20042;-53
2020/12/26 07:47:18;;;;;;;31.05;15.25;;;;;;;;;;5062725;28;20028;-55
2020/12/26 07:49:56;;;;;;;31.10;14.00;;;;;;;;;;5075857;28;20109;-50
2020/12/26 07:52:22;;;;;;;29.88;14.38;;;;;;;;;;5085818;28;20047;-50
2020/12/26 07:54:57;;;;;;;32.40;13.68;;;;;;;;;;5078367;28;20064;-55
2020/12/26 07:57:23;;;;;;;31.73;13.93;;;;;;;;;;5077537;28;20531;-52
2020/12/26 07:59:49;;;;;;;34.25;14.52;;;;;;;;;;5084514;28;20101;-50
2020/12/26 08:02:15;;;;;;;31.75;13.70;;;;;;;;;;5078250;28;20036;-51
2020/12/26 08:04:44;;;;;;;30.95;14.65;;;;;;;;;;5073006;28;20356;-55
2020/12/26 08:07:11;;;;;;;30.20;13.32;;;;;;;;;;5082219;28;20075;-53
2020/12/26 08:09:38;;;;;;;33.45;15.40;;;;;;;;;;5087917;28;20040;-50
2020/12/26 08:12:07;;;;;;;34.13;14.25;;;;;;;;;;5071083;28;20346;-54
2020/12/26 08:14:33;;;;;;;29.33;13.82;;;;;;;;;;5057813;28;20029;-53
2020/12/26 08:17:00;;;;;;;27.67;14.00;;;;;;;;;;5071419;28;20028;-52
2020/12/26 08:19:26;;;;;;;26.02;13.40;;;;;;;;;;5084105;28;20588;-55
2020/12/26 08:21:59;;;;;;;26.25;11.65;;;;;;;;;;5071002;28;20025;-50
2020/12/26 08:24:25;;;;;;;28.58;13.45;;;;;;;;;;5071573;28;20043;-51
2020/12/26 08:26:54;;;;;;;27.45;12.90;;;;;;;;;;5080941;28;20472;-53
2020/12/26 08:29:24;;;;;;;27.50;13.65;;;;;;;;;;5085935;28;20079;-56
2020/12/26 08:31:51;;;;;;;29.33;13.57;;;;;;;;;;5067711;28;20029;-50
2020/12/26 08:34:23;;;;;;;24.95;12.73;;;;;;;;;;5073321;28;20030;-49
2020/12/26 08:37:00;;;;;;;29.80;13.13;;;;;;;;;;5069707;28;20475;-56
2020/12/26 08:39:27;;;;;;;30.00;12.93;;;;;;;;;;5088572;28;20028;-50
2020/12/26 08:41:54;;;;;;;25.38;12.43;;;;;;;;;;5086709;28;20111;-51
2020/12/26 08:44:20;;;;;;;29.13;13.10;;;;;;;;;;5088488;28;20069;-55
2020/12/26 08:46:47;;;;;;;25.83;13.18;;;;;;;;;;5087386;28;20043;-54
2020/12/26 08:49:13;;;;;;;25.10;12.45;;;;;;;;;;5087218;28;20055;-53
2020/12/26 08:51:40;;;;;;;32.75;13.77;;;;;;;;;;5073874;28;20028;-51
2020/12/26 08:54:06;;;;;;;27.98;12.20;;;;;;;;;;5067507;28;20029;-52
2020/12/26 08:56:32;;;;;;;27.52;12.60;;;;;;;;;;5076725;28;20435;-55
2020/12/26 08:58:58;;;;;;;23.33;12.05;;;;;;;;;;5083523;28;20028;-52
2020/12/26 09:01:24;;;;;;;27.10;11.48;;;;;;;;;;5070935;28;20074;-53
2020/12/26 09:03:50;;;;;;;22.42;12.30;;;;;;;;;;5082914;28;20032;-54
2020/12/26 09:06:17;;;;;;;22.10;11.73;;;;;;;;;;5078916;28;20039;-51
2020/12/26 09:08:43;;;;;;;25.23;12.15;;;;;;;;;;5072975;28;20029;-54
2020/12/26 09:11:10;;;;;;;23.35;11.82;;;;;;;;;;5083127;28;20113;-52
2020/12/26 09:13:40;;;;;;;23.70;11.43;;;;;;;;;;5083217;28;20461;-50
2020/12/26 09:16:06;;;;;;;22.27;12.05;;;;;;;;;;5084548;28;20050;-56
2020/12/26 09:18:40;;;;;;;27.58;11.90;;;;;;;;;;5066149;28;20475;-53
2020/12/26 09:21:07;;;;;;;23.08;11.77;;;;;;;;;;5084730;28;20031;-51
2020/12/26 09:23:33;;;;;;;25.75;12.63;;;;;;;;;;5066866;28;20041;-51
2020/12/26 09:26:15;;;;;;;23.92;12.25;;;;;;;;;;5064757;28;20037;-52
2020/12/26 09:28:44;;;;;;;26.73;9.57;;;;;;;;;;5075453;28;20059;-50
2020/12/26 09:31:10;;;;;;;21.10;11.02;;;;;;;;;;5084940;28;20024;-55
2020/12/26 09:33:36;;;;;;;26.35;12.40;;;;;;;;;;5077832;28;20073;-52
2020/12/26 09:36:03;;;;;;;25.15;11.88;;;;;;;;;;5064894;28;20028;-55
2020/12/26 09:38:29;;;;;;;25.83;12.50;;;;;;;;;;5079355;28;20143;-52
2020/12/26 09:40:55;;;;;;;22.85;12.55;;;;;;;;;;5069061;28;20059;-54
2020/12/26 09:43:21;;;;;;;23.33;12.77;;;;;;;;;;5079114;28;20028;-51
2020/12/26 09:45:47;;;;;;;24.13;13.13;;;;;;;;;;5088102;28;20048;-55
2020/12/26 09:48:13;;;;;;;26.27;13.63;;;;;;;;;;5084215;28;20040;-56
2020/12/26 09:50:39;;;;;;;22.98;12.27;;;;;;;;;;5072496;28;20029;-54
2020/12/26 09:53:05;;;;;;;30.48;12.00;;;;;;;;;;5083645;28;20028;-51
2020/12/26 09:55:31;;;;;;;31.05;12.63;;;;;;;;;;5076316;28;20043;-54
2020/12/26 09:57:57;;;;;;;26.20;12.25;;;;;;;;;;5081589;28;20013;-52
2020/12/26 10:00:23;;;;;;;22.58;11.70;;;;;;;;;;5089567;28;20109;-54
2020/12/26 10:02:49;;;;;;;27.92;12.27;;;;;;;;;;5069768;28;20040;-54
2020/12/26 10:05:18;;;;;;;31.50;12.60;;;;;;;;;;5070664;28;20071;-56
2020/12/26 10:07:44;;;;;;;22.63;11.45;;;;;;;;;;5063694;28;20045;-51
2020/12/26 10:10:10;;;;;;;25.40;11.98;;;;;;;;;;5088909;28;20028;-54
2020/12/26 10:12:37;;;;;;;23.83;11.13;;;;;;;;;;5059372;28;20033;-50
2020/12/26 10:15:04;;;;;;;29.27;12.18;;;;;;;;;;5072515;28;20232;-52
2020/12/26 10:17:29;;;;;;;24.02;11.60;;;;;;;;;;5081279;28;20115;-52
2020/12/26 10:19:55;;;;;;;26.75;11.65;;;;;;;;;;5070053;28;20104;-53
2020/12/26 10:22:21;;;;;;;20.10;10.82;;;;;;;;;;5078227;28;20029;-55
2020/12/26 10:24:47;;;;;;;26.05;11.65;;;;;;;;;;5082257;28;20020;-53
2020/12/26 10:27:13;;;;;;;21.00;10.00;;;;;;;;;;5085656;28;20031;-53
2020/12/26 10:29:39;;;;;;;21.58;10.23;;;;;;;;;;5088883;28;20050;-55
2020/12/26 10:32:05;;;;;;;21.55;10.13;;;;;;;;;;5078733;28;20012;-51
2020/12/26 10:34:31;;;;;;;18.48;9.60;;;;;;;;;;5070122;28;20025;-56
2020/12/26 10:36:57;;;;;;;19.83;9.88;;;;;;;;;;5065452;28;20029;-51
2020/12/26 10:39:23;;;;;;;25.25;10.27;;;;;;;;;;5069708;28;20050;-55
2020/12/26 10:41:49;;;;;;;17.02;9.25;;;;;;;;;;5070297;28;20036;-54
2020/12/26 10:44:15;;;;;;;17.05;8.68;;;;;;;;;;5073690;28;20033;-54
2020/12/26 10:46:41;;;;;;;24.48;9.52;;;;;;;;;;5077296;28;20155;-51
2020/12/26 10:49:07;;;;;;;21.08;10.57;;;;;;;;;;5067182;28;20404;-49
2020/12/26 10:51:34;;;;;;;16.13;8.93;;;;;;;;;;5052862;28;20419;-56
2020/12/26 10:54:00;;;;;;;20.30;9.50;;;;;;;;;;5070554;28;20461;-51
2020/12/26 10:56:26;;;;;;;18.55;9.75;;;;;;;;;;5077081;28;20767;-50
2020/12/26 10:58:52;;;;;;;21.42;9.13;;;;;;;;;;5063098;28;20399;-50
2020/12/26 11:01:18;;;;;;;20.58;9.68;;;;;;;;;;5061959;28;20025;-54
2020/12/26 11:03:44;;;;;;;16.10;9.43;;;;;;;;;;5071412;28;20033;-53
2020/12/26 11:06:11;;;;;;;24.67;14.80;;;;;;;;;;5073699;28;20480;-48
2020/12/26 11:08:37;;;;;;;15.80;8.27;;;;;;;;;;5086469;28;20036;-49
2020/12/26 11:11:03;;;;;;;16.73;8.27;;;;;;;;;;5081794;28;20021;-52
2020/12/26 11:13:28;;;;;;;16.30;8.48;;;;;;;;;;5080632;28;20436;-49
2020/12/26 11:15:54;;;;;;;15.00;7.50;;;;;;;;;;5076169;28;20023;-53
2020/12/26 11:18:20;;;;;;;17.65;7.47;;;;;;;;;;5076289;28;20027;-52
2020/12/26 11:20:47;;;;;;;15.73;7.43;;;;;;;;;;5069149;28;20017;-53
2020/12/26 11:23:13;;;;;;;13.80;7.85;;;;;;;;;;5063938;28;20120;-56
2020/12/26 11:25:40;;;;;;;18.30;7.93;;;;;;;;;;5057063;28;20033;-54
2020/12/26 11:28:06;;;;;;;18.55;7.40;;;;;;;;;;5083687;28;20104;-55
2020/12/26 11:30:32;;;;;;;14.48;8.18;;;;;;;;;;5074073;28;20426;-54
2020/12/26 11:32:58;;;;;;;16.10;7.85;;;;;;;;;;5081337;28;20047;-51
2020/12/26 11:35:24;;;;;;;16.10;7.65;;;;;;;;;;5081325;28;20028;-52
2020/12/26 11:37:50;;;;;;;14.57;8.80;;;;;;;;;;5082025;28;20089;-52
2020/12/26 11:40:16;;;;;;;15.07;7.38;;;;;;;;;;5085407;28;20074;-51
2020/12/26 11:42:42;;;;;;;14.93;7.25;;;;;;;;;;5062726;28;20029;-50
2020/12/26 11:45:09;;;;;;;16.60;7.80;;;;;;;;;;5089217;28;20020;-54
2020/12/26 11:47:36;;;;;;;17.08;8.18;;;;;;;;;;5072869;28;20637;-52
2020/12/26 11:50:02;;;;;;;13.73;7.13;;;;;;;;;;5081942;28;20036;-54
2020/12/26 11:52:28;;;;;;;11.38;6.55;;;;;;;;;;5080703;28;20418;-55
2020/12/26 11:54:54;;;;;;;14.43;8.02;;;;;;;;;;5083314;28;20024;-51
2020/12/26 11:57:20;;;;;;;12.07;6.10;;;;;;;;;;5084128;28;20027;-52
2020/12/26 11:59:46;;;;;;;11.35;6.93;;;;;;;;;;5077599;28;20032;-52
2020/12/26 12:02:12;;;;;;;14.85;7.10;;;;;;;;;;5086043;28;20028;-51
2020/12/26 12:04:38;;;;;;;12.75;6.97;;;;;;;;;;5077060;28;20039;-52
2020/12/26 12:07:05;;;;;;;13.00;6.85;;;;;;;;;;5083063;28;20411;-52
2020/12/26 12:09:31;;;;;;;16.27;6.72;;;;;;;;;;5068733;28;20435;-56
2020/12/26 12:11:57;;;;;;;14.07;6.40;;;;;;;;;;5069428;28;20025;-52
2020/12/26 12:14:23;;;;;;;13.30;6.57;;;;;;;;;;5065083;28;20462;-54
2020/12/26 12:16:49;;;;;;;11.82;6.25;;;;;;;;;;5084608;28;20031;-51
2020/12/26 12:19:15;;;;;;;10.70;5.95;;;;;;;;;;5076950;28;20055;-52
2020/12/26 12:21:43;;;;;;;12.82;6.45;;;;;;;;;;5073379;28;20021;-55
2020/12/26 12:24:09;;;;;;;10.90;6.18;;;;;;;;;;5080689;28;20395;-55
2020/12/26 12:26:35;;;;;;;16.65;7.07;;;;;;;;;;5082141;28;20020;-54
2020/12/26 12:29:01;;;;;;;13.68;7.22;;;;;;;;;;5078403;28;20016;-52
2020/12/26 12:31:27;;;;;;;15.23;6.05;;;;;;;;;;5075314;28;20062;-51
2020/12/26 12:33:56;;;;;;;13.27;6.53;;;;;;;;;;5069905;28;20093;-52
2020/12/26 12:36:22;;;;;;;11.18;6.60;;;;;;;;;;5070880;28;20028;-55
2020/12/26 12:38:48;;;;;;;13.82;7.28;;;;;;;;;;5077446;28;20721;-52
2020/12/26 12:41:14;;;;;;;14.98;7.35;;;;;;;;;;5072585;28;20025;-54
2020/12/26 12:43:40;;;;;;;14.55;6.78;;;;;;;;;;5076901;28;20025;-53
2020/12/26 12:46:08;;;;;;;12.13;6.30;;;;;;;;;;5074196;28;20032;-52
2020/12/26 12:48:34;;;;;;;12.38;6.82;;;;;;;;;;5076149;28;20107;-54
2020/12/26 12:50:59;;;;;;;11.65;6.50;;;;;;;;;;5069102;28;20024;-52
2020/12/26 12:53:25;;;;;;;12.18;6.70;;;;;;;;;;5071127;28;20028;-52
2020/12/26 12:55:51;;;;;;;12.32;6.65;;;;;;;;;;5072379;28;20020;-51
2020/12/26 12:58:17;;;;;;;11.48;5.95;;;;;;;;;;5075890;28;20024;-51
2020/12/26 13:00:43;;;;;;;10.98;6.30;;;;;;;;;;5087997;28;20085;-55
2020/12/26 13:03:09;;;;;;;11.55;6.03;;;;;;;;;;5086518;28;20028;-51
2020/12/26 13:05:36;;;;;;;13.65;6.22;;;;;;;;;;5088586;28;20093;-53
2020/12/26 13:08:02;;;;;;;14.65;6.93;;;;;;;;;;5086262;28;20105;-52
2020/12/26 13:10:28;;;;;;;11.85;6.47;;;;;;;;;;5091604;28;20081;-51
2020/12/26 13:12:54;;;;;;;9.80;5.75;;;;;;;;;;5083102;28;20460;-52
2020/12/26 13:15:19;;;;;;;15.45;6.75;;;;;;;;;;5091328;28;20077;-57
2020/12/26 13:17:45;;;;;;;12.60;6.38;;;;;;;;;;5090688;28;20078;-55
2020/12/26 13:20:11;;;;;;;11.45;6.38;;;;;;;;;;5091494;28;20032;-50
2020/12/26 13:22:37;;;;;;;12.25;6.32;;;;;;;;;;5077531;28;20025;-50
2020/12/26 13:25:06;;;;;;;10.00;5.72;;;;;;;;;;5089640;28;20034;-50
2020/12/26 13:27:32;;;;;;;13.60;5.82;;;;;;;;;;5091410;28;20027;-51
2020/12/26 13:29:58;;;;;;;12.02;6.28;;;;;;;;;;5091296;28;20074;-53
2020/12/26 13:32:24;;;;;;;11.15;6.22;;;;;;;;;;5091606;28;20043;-50
2020/12/26 13:34:50;;;;;;;9.98;6.05;;;;;;;;;;5087435;28;20028;-51
2020/12/26 13:37:16;;;;;;;15.13;6.55;;;;;;;;;;5091338;28;20417;-54
2020/12/26 13:39:42;;;;;;;13.40;6.50;;;;;;;;;;5090795;28;20032;-54
2020/12/26 13:42:08;;;;;;;8.77;5.38;;;;;;;;;;5091191;28;20024;-55
2020/12/26 13:44:34;;;;;;;13.73;6.47;;;;;;;;;;5089633;28;20020;-53
2020/12/26 13:47:00;;;;;;;13.60;6.47;;;;;;;;;;5089746;28;20518;-53
2020/12/26 13:49:26;;;;;;;12.77;6.20;;;;;;;;;;5091057;28;20447;-52
2020/12/26 13:51:52;;;;;;;10.45;6.53;;;;;;;;;;5085245;28;20012;-51
2020/12/26 13:54:19;;;;;;;12.43;6.50;;;;;;;;;;5070627;28;20072;-56
2020/12/26 13:56:45;;;;;;;13.60;7.18;;;;;;;;;;5086873;28;20039;-49
2020/12/26 13:59:11;;;;;;;12.55;6.50;;;;;;;;;;5078418;28;20130;-54
2020/12/26 14:01:43;;;;;;;11.65;6.38;;;;;;;;;;5088233;28;20491;-53
2020/12/26 14:04:12;;;;;;;15.32;7.55;;;;;;;;;;5078419;28;20024;-53
2020/12/26 14:06:38;;;;;;;13.25;7.03;;;;;;;;;;5090273;28;20040;-51
2020/12/26 14:09:06;;;;;;;14.48;7.03;;;;;;;;;;5090433;28;20023;-56
2020/12/26 14:11:32;;;;;;;12.57;7.32;;;;;;;;;;5077678;28;20037;-50
2020/12/26 14:13:58;;;;;;;13.50;6.93;;;;;;;;;;5090451;28;20024;-52
2020/12/26 14:16:25;;;;;;;17.52;6.97;;;;;;;;;;5073005;28;20078;-55
2020/12/26 14:18:51;;;;;;;14.43;8.05;;;;;;;;;;5090792;28;20030;-53
2020/12/26 14:21:17;;;;;;;13.88;7.13;;;;;;;;;;5087649;28;20062;-52
2020/12/26 14:23:43;;;;;;;14.88;7.30;;;;;;;;;;5090682;28;20032;-56
2020/12/26 14:26:09;;;;;;;17.45;6.95;;;;;;;;;;5089877;28;20031;-51
2020/12/26 14:28:37;;;;;;;13.10;6.80;;;;;;;;;;5090406;28;20043;-54